KSAZ

Details ICAO KSAZ
Name STAPLES MUNI
Region United States
Timezone America/Chicago (UTC-6.0)
Plans Departing 0
Arriving 1
Stats Elevation 1,287 ft / 392 m (AMSL)
Location 46.380883° -94.806589°
Runways 1
Magnetic Variation 1.339° E
Sunrise 2017-12-18 13:59:28 UTC / 2017-12-18 07:59:28 Local
Sunset 2017-12-18 22:35:09 UTC / 2017-12-18 16:35:09 Local
Advertisement - Login to hide

Runways

ID Width Length Bearing (true) Bearing (mag) Surface Threshold Offset Overrun Length
14 75 ft / 23 m 3,303 ft / 1,007 m 144.84° 143.50° Asphalt 0 ft / 0 m 0 ft / 0 m
32 75 ft / 23 m 3,303 ft / 1,007 m 324.84° 323.50° Asphalt 0 ft / 0 m 0 ft / 0 m

Map

Weather


0- 5 10 15 20 25 30 35+ Temperature / ° C

Clouds and Precipitation
Forecast for 2017-12-18 12:00 UTC. Updated an hour ago

Ground ~20,000 ft ~40,000 ft Winds

METAR

KSAZ 181235Z AUTO 19006KT 7SM CLR M04/M04 A2968 RMK AO2

TAF

Not found

Frequencies

Recorded 118.32 MHz AWOS 3
Unicom 122.90 MHz CTAF
Warning: Do not use this data for real-world aviation or navigation. No guarantee of current accuracy is given.